sensor_id;sensor_type;location;lat;lon;timestamp;temperature;humidity
21830;DHT22;11077;50.264;6.798;2023-04-24T00:02:11;7.90;99.90
21830;DHT22;11077;50.264;6.798;2023-04-24T00:04:39;7.90;99.90
21830;DHT22;11077;50.264;6.798;2023-04-24T00:07:07;7.90;99.90
21830;DHT22;11077;50.264;6.798;2023-04-24T00:09:36;7.90;99.90
21830;DHT22;11077;50.264;6.798;2023-04-24T00:12:03;7.90;99.90
21830;DHT22;11077;50.264;6.798;2023-04-24T00:14:31;7.90;99.90
21830;DHT22;11077;50.264;6.798;2023-04-24T00:16:58;7.90;99.90
21830;DHT22;11077;50.264;6.798;2023-04-24T00:19:26;7.80;99.90
21830;DHT22;11077;50.264;6.798;2023-04-24T00:21:53;7.80;99.90
21830;DHT22;11077;50.264;6.798;2023-04-24T00:24:20;7.80;99.90
21830;DHT22;11077;50.264;6.798;2023-04-24T00:26:49;7.80;99.90
21830;DHT22;11077;50.264;6.798;2023-04-24T00:29:16;7.80;99.90
21830;DHT22;11077;50.264;6.798;2023-04-24T00:31:43;7.80;99.90
21830;DHT22;11077;50.264;6.798;2023-04-24T00:34:11;7.80;99.90
21830;DHT22;11077;50.264;6.798;2023-04-24T00:36:38;7.70;99.90
21830;DHT22;11077;50.264;6.798;2023-04-24T00:39:06;7.70;99.90
21830;DHT22;11077;50.264;6.798;2023-04-24T00:41:34;7.70;99.90
21830;DHT22;11077;50.264;6.798;2023-04-24T00:44:03;7.70;99.90
21830;DHT22;11077;50.264;6.798;2023-04-24T00:46:31;7.70;99.90
21830;DHT22;11077;50.264;6.798;2023-04-24T00:48:59;7.70;99.90
21830;DHT22;11077;50.264;6.798;2023-04-24T00:51:26;7.70;99.90
21830;DHT22;11077;50.264;6.798;2023-04-24T00:53:54;7.70;99.90
21830;DHT22;11077;50.264;6.798;2023-04-24T00:56:21;7.70;99.90
21830;DHT22;11077;50.264;6.798;2023-04-24T00:58:49;7.70;99.90
21830;DHT22;11077;50.264;6.798;2023-04-24T01:01:21;7.70;99.90
21830;DHT22;11077;50.264;6.798;2023-04-24T01:03:51;7.70;99.90
21830;DHT22;11077;50.264;6.798;2023-04-24T01:06:19;7.70;99.90
21830;DHT22;11077;50.264;6.798;2023-04-24T01:08:47;7.60;99.90
21830;DHT22;11077;50.264;6.798;2023-04-24T01:11:15;7.60;99.90
21830;DHT22;11077;50.264;6.798;2023-04-24T01:13:45;7.50;99.90
21830;DHT22;11077;50.264;6.798;2023-04-24T01:16:13;7.50;99.90
21830;DHT22;11077;50.264;6.798;2023-04-24T01:18:42;7.50;99.90
21830;DHT22;11077;50.264;6.798;2023-04-24T01:21:13;7.50;99.90
21830;DHT22;11077;50.264;6.798;2023-04-24T01:23:42;7.40;99.90
21830;DHT22;11077;50.264;6.798;2023-04-24T01:26:10;7.20;99.90
21830;DHT22;11077;50.264;6.798;2023-04-24T01:28:39;7.00;99.90
21830;DHT22;11077;50.264;6.798;2023-04-24T01:31:07;6.80;99.90
21830;DHT22;11077;50.264;6.798;2023-04-24T01:33:36;6.70;99.90
21830;DHT22;11077;50.264;6.798;2023-04-24T01:36:05;6.60;99.90
21830;DHT22;11077;50.264;6.798;2023-04-24T01:38:33;6.60;99.90
21830;DHT22;11077;50.264;6.798;2023-04-24T01:41:02;6.50;99.90
21830;DHT22;11077;50.264;6.798;2023-04-24T01:43:30;6.50;99.90
21830;DHT22;11077;50.264;6.798;2023-04-24T01:45:57;6.50;99.90
21830;DHT22;11077;50.264;6.798;2023-04-24T01:48:25;6.50;99.90
21830;DHT22;11077;50.264;6.798;2023-04-24T01:50:52;6.40;99.90
21830;DHT22;11077;50.264;6.798;2023-04-24T01:53:23;6.50;99.90
21830;DHT22;11077;50.264;6.798;2023-04-24T01:55:52;6.30;99.90
21830;DHT22;11077;50.264;6.798;2023-04-24T01:58:22;6.30;99.90
21830;DHT22;11077;50.264;6.798;2023-04-24T02:00:52;6.30;99.90
21830;DHT22;11077;50.264;6.798;2023-04-24T02:03:21;6.30;99.90
21830;DHT22;11077;50.264;6.798;2023-04-24T02:05:48;6.20;99.90
21830;DHT22;11077;50.264;6.798;2023-04-24T02:08:16;6.20;99.90
21830;DHT22;11077;50.264;6.798;2023-04-24T02:10:44;6.10;99.90
21830;DHT22;11077;50.264;6.798;2023-04-24T02:13:12;5.90;99.90
21830;DHT22;11077;50.264;6.798;2023-04-24T02:15:44;6.00;99.90
21830;DHT22;11077;50.264;6.798;2023-04-24T02:18:13;6.00;99.90
21830;DHT22;11077;50.264;6.798;2023-04-24T02:20:41;5.90;99.90
21830;DHT22;11077;50.264;6.798;2023-04-24T02:23:09;5.90;99.90
21830;DHT22;11077;50.264;6.798;2023-04-24T02:25:39;5.90;99.90
21830;DHT22;11077;50.264;6.798;2023-04-24T02:28:07;5.80;99.90
21830;DHT22;11077;50.264;6.798;2023-04-24T02:30:35;5.70;99.90
21830;DHT22;11077;50.264;6.798;2023-04-24T02:33:04;5.70;99.90
21830;DHT22;11077;50.264;6.798;2023-04-24T02:35:34;5.60;99.90
21830;DHT22;11077;50.264;6.798;2023-04-24T02:38:02;5.50;99.90
21830;DHT22;11077;50.264;6.798;2023-04-24T02:40:36;5.50;99.90
21830;DHT22;11077;50.264;6.798;2023-04-24T02:43:12;5.40;99.90
21830;DHT22;11077;50.264;6.798;2023-04-24T02:45:43;5.50;99.90
21830;DHT22;11077;50.264;6.798;2023-04-24T02:48:18;5.60;99.90
21830;DHT22;11077;50.264;6.798;2023-04-24T02:50:46;5.60;99.90
21830;DHT22;11077;50.264;6.798;2023-04-24T02:53:16;5.60;99.90
21830;DHT22;11077;50.264;6.798;2023-04-24T02:55:43;5.60;99.90
21830;DHT22;11077;50.264;6.798;2023-04-24T02:58:15;5.60;99.90
21830;DHT22;11077;50.264;6.798;2023-04-24T03:00:52;5.60;99.90
21830;DHT22;11077;50.264;6.798;2023-04-24T03:03:27;5.60;99.90
21830;DHT22;11077;50.264;6.798;2023-04-24T03:05:58;5.60;99.90
21830;DHT22;11077;50.264;6.798;2023-04-24T03:08:31;5.60;99.90
21830;DHT22;11077;50.264;6.798;2023-04-24T03:11:12;5.50;99.90
21830;DHT22;11077;50.264;6.798;2023-04-24T03:13:44;5.50;99.90
21830;DHT22;11077;50.264;6.798;2023-04-24T03:16:15;5.40;99.90
21830;DHT22;11077;50.264;6.798;2023-04-24T03:18:45;5.50;99.90
21830;DHT22;11077;50.264;6.798;2023-04-24T03:21:16;5.40;99.90
21830;DHT22;11077;50.264;6.798;2023-04-24T03:23:45;5.30;99.90
21830;DHT22;11077;50.264;6.798;2023-04-24T03:26:14;5.30;99.90
21830;DHT22;11077;50.264;6.798;2023-04-24T03:28:54;5.30;99.90
21830;DHT22;11077;50.264;6.798;2023-04-24T03:31:38;5.20;99.90
21830;DHT22;11077;50.264;6.798;2023-04-24T03:34:12;5.20;99.90
21830;DHT22;11077;50.264;6.798;2023-04-24T03:36:43;5.10;99.90
21830;DHT22;11077;50.264;6.798;2023-04-24T03:39:13;5.10;99.90
21830;DHT22;11077;50.264;6.798;2023-04-24T03:41:47;5.10;99.90
21830;DHT22;11077;50.264;6.798;2023-04-24T03:44:18;5.10;99.90
21830;DHT22;11077;50.264;6.798;2023-04-24T03:46:46;5.00;99.90
21830;DHT22;11077;50.264;6.798;2023-04-24T03:49:14;5.10;99.90
21830;DHT22;11077;50.264;6.798;2023-04-24T03:51:44;5.10;99.90
21830;DHT22;11077;50.264;6.798;2023-04-24T03:54:23;5.10;99.90
21830;DHT22;11077;50.264;6.798;2023-04-24T03:56:52;5.20;99.90
21830;DHT22;11077;50.264;6.798;2023-04-24T03:59:20;5.20;99.90
21830;DHT22;11077;50.264;6.798;2023-04-24T04:01:58;5.20;99.90
21830;DHT22;11077;50.264;6.798;2023-04-24T04:04:28;5.20;99.90
21830;DHT22;11077;50.264;6.798;2023-04-24T04:06:56;5.20;99.90
21830;DHT22;11077;50.264;6.798;2023-04-24T04:09:27;5.20;99.90
21830;DHT22;11077;50.264;6.798;2023-04-24T04:11:55;5.20;99.90
21830;DHT22;11077;50.264;6.798;2023-04-24T04:14:23;5.10;99.90
21830;DHT22;11077;50.264;6.798;2023-04-24T04:16:53;5.10;99.90
21830;DHT22;11077;50.264;6.798;2023-04-24T04:19:21;5.10;99.90
21830;DHT22;11077;50.264;6.798;2023-04-24T04:22:04;5.10;99.90
21830;DHT22;11077;50.264;6.798;2023-04-24T04:24:43;5.10;99.90
21830;DHT22;11077;50.264;6.798;2023-04-24T04:27:12;5.10;99.90
21830;DHT22;11077;50.264;6.798;2023-04-24T04:29:51;5.10;99.90
21830;DHT22;11077;50.264;6.798;2023-04-24T04:32:20;5.10;99.90
21830;DHT22;11077;50.264;6.798;2023-04-24T04:34:49;5.10;99.90
21830;DHT22;11077;50.264;6.798;2023-04-24T04:37:22;5.10;99.90
21830;DHT22;11077;50.264;6.798;2023-04-24T04:40:03;5.10;99.90
21830;DHT22;11077;50.264;6.798;2023-04-24T04:42:39;5.20;99.90
21830;DHT22;11077;50.264;6.798;2023-04-24T04:45:07;5.30;99.90
21830;DHT22;11077;50.264;6.798;2023-04-24T04:47:49;5.30;99.90
21830;DHT22;11077;50.264;6.798;2023-04-24T04:50:17;5.30;99.90
21830;DHT22;11077;50.264;6.798;2023-04-24T04:52:48;5.30;99.90
21830;DHT22;11077;50.264;6.798;2023-04-24T04:55:29;5.30;99.90
21830;DHT22;11077;50.264;6.798;2023-04-24T04:58:07;5.40;99.90
21830;DHT22;11077;50.264;6.798;2023-04-24T05:00:35;5.40;99.90
21830;DHT22;11077;50.264;6.798;2023-04-24T05:03:25;5.40;99.90
21830;DHT22;11077;50.264;6.798;2023-04-24T05:05:58;5.50;99.90
21830;DHT22;11077;50.264;6.798;2023-04-24T05:08:28;5.50;99.90
21830;DHT22;11077;50.264;6.798;2023-04-24T05:10:58;5.50;99.90
21830;DHT22;11077;50.264;6.798;2023-04-24T05:13:28;5.50;99.90
21830;DHT22;11077;50.264;6.798;2023-04-24T05:15:58;5.60;99.90
21830;DHT22;11077;50.264;6.798;2023-04-24T05:18:26;5.50;99.90
21830;DHT22;11077;50.264;6.798;2023-04-24T05:20:54;5.60;99.90
21830;DHT22;11077;50.264;6.798;2023-04-24T05:23:22;5.60;99.90
21830;DHT22;11077;50.264;6.798;2023-04-24T05:25:54;5.60;99.90
21830;DHT22;11077;50.264;6.798;2023-04-24T05:28:21;5.60;99.90
21830;DHT22;11077;50.264;6.798;2023-04-24T05:31:03;5.70;99.90
21830;DHT22;11077;50.264;6.798;2023-04-24T05:33:31;5.60;99.90
21830;DHT22;11077;50.264;6.798;2023-04-24T05:35:59;5.60;99.90
21830;DHT22;11077;50.264;6.798;2023-04-24T05:38:27;5.60;99.90
21830;DHT22;11077;50.264;6.798;2023-04-24T05:40:57;5.60;99.90
21830;DHT22;11077;50.264;6.798;2023-04-24T05:43:25;5.70;99.90
21830;DHT22;11077;50.264;6.798;2023-04-24T05:45:53;5.60;99.90
21830;DHT22;11077;50.264;6.798;2023-04-24T05:48:21;5.70;99.90
21830;DHT22;11077;50.264;6.798;2023-04-24T05:50:49;5.70;99.90
21830;DHT22;11077;50.264;6.798;2023-04-24T05:53:18;5.70;99.90
21830;DHT22;11077;50.264;6.798;2023-04-24T05:55:45;5.70;99.90
21830;DHT22;11077;50.264;6.798;2023-04-24T05:58:14;5.70;99.90
21830;DHT22;11077;50.264;6.798;2023-04-24T06:00:43;5.70;99.90
21830;DHT22;11077;50.264;6.798;2023-04-24T06:03:12;5.70;99.90
21830;DHT22;11077;50.264;6.798;2023-04-24T06:05:40;5.70;99.90
21830;DHT22;11077;50.264;6.798;2023-04-24T06:08:08;5.80;99.90
21830;DHT22;11077;50.264;6.798;2023-04-24T06:10:38;5.80;99.90
21830;DHT22;11077;50.264;6.798;2023-04-24T06:13:08;5.80;99.90
21830;DHT22;11077;50.264;6.798;2023-04-24T06:15:39;5.80;99.90
21830;DHT22;11077;50.264;6.798;2023-04-24T06:18:10;5.90;99.90
21830;DHT22;11077;50.264;6.798;2023-04-24T06:20:39;5.90;99.90
21830;DHT22;11077;50.264;6.798;2023-04-24T06:23:08;5.90;99.90
21830;DHT22;11077;50.264;6.798;2023-04-24T06:25:36;6.00;99.90
21830;DHT22;11077;50.264;6.798;2023-04-24T06:28:04;6.00;99.90
21830;DHT22;11077;50.264;6.798;2023-04-24T06:30:31;6.00;99.90
21830;DHT22;11077;50.264;6.798;2023-04-24T06:33:01;6.00;99.90
21830;DHT22;11077;50.264;6.798;2023-04-24T06:35:29;6.00;99.90
21830;DHT22;11077;50.264;6.798;2023-04-24T06:37:56;6.00;99.90
21830;DHT22;11077;50.264;6.798;2023-04-24T06:40:26;6.00;99.90
21830;DHT22;11077;50.264;6.798;2023-04-24T06:42:53;6.00;99.90
21830;DHT22;11077;50.264;6.798;2023-04-24T06:45:20;6.00;99.90
21830;DHT22;11077;50.264;6.798;2023-04-24T06:47:47;6.00;99.90
21830;DHT22;11077;50.264;6.798;2023-04-24T06:50:16;6.00;99.90
21830;DHT22;11077;50.264;6.798;2023-04-24T06:52:43;6.00;99.90
21830;DHT22;11077;50.264;6.798;2023-04-24T06:55:11;6.00;99.90
21830;DHT22;11077;50.264;6.798;2023-04-24T06:57:38;6.00;99.90
21830;DHT22;11077;50.264;6.798;2023-04-24T07:00:07;6.00;99.90
21830;DHT22;11077;50.264;6.798;2023-04-24T07:02:35;6.00;99.90
21830;DHT22;11077;50.264;6.798;2023-04-24T07:05:03;6.10;99.90
21830;DHT22;11077;50.264;6.798;2023-04-24T07:07:35;6.10;99.90
21830;DHT22;11077;50.264;6.798;2023-04-24T07:10:04;6.20;99.90
21830;DHT22;11077;50.264;6.798;2023-04-24T07:12:31;6.20;99.90
21830;DHT22;11077;50.264;6.798;2023-04-24T07:14:59;6.20;99.90
21830;DHT22;11077;50.264;6.798;2023-04-24T07:17:27;6.30;99.90
21830;DHT22;11077;50.264;6.798;2023-04-24T07:19:54;6.30;99.90
21830;DHT22;11077;50.264;6.798;2023-04-24T07:22:22;6.30;99.90
21830;DHT22;11077;50.264;6.798;2023-04-24T07:24:51;6.30;99.90
21830;DHT22;11077;50.264;6.798;2023-04-24T07:27:19;6.30;99.90
21830;DHT22;11077;50.264;6.798;2023-04-24T07:29:50;6.30;99.90
21830;DHT22;11077;50.264;6.798;2023-04-24T07:32:18;6.30;99.90
21830;DHT22;11077;50.264;6.798;2023-04-24T07:34:46;6.30;99.90
21830;DHT22;11077;50.264;6.798;2023-04-24T07:37:13;6.30;99.90
21830;DHT22;11077;50.264;6.798;2023-04-24T07:39:44;6.20;99.90
21830;DHT22;11077;50.264;6.798;2023-04-24T07:42:13;6.20;99.90
21830;DHT22;11077;50.264;6.798;2023-04-24T07:47:14;6.20;99.90
21830;DHT22;11077;50.264;6.798;2023-04-24T07:49:42;6.20;99.90
21830;DHT22;11077;50.264;6.798;2023-04-24T07:52:09;6.20;99.90
21830;DHT22;11077;50.264;6.798;2023-04-24T07:54:37;6.20;99.90
21830;DHT22;11077;50.264;6.798;2023-04-24T07:57:06;6.20;99.90
21830;DHT22;11077;50.264;6.798;2023-04-24T07:59:35;6.20;99.90
21830;DHT22;11077;50.264;6.798;2023-04-24T08:02:02;6.30;99.90
21830;DHT22;11077;50.264;6.798;2023-04-24T08:04:30;6.30;99.90
21830;DHT22;11077;50.264;6.798;2023-04-24T08:06:57;6.40;99.90
21830;DHT22;11077;50.264;6.798;2023-04-24T08:09:25;6.40;99.90
21830;DHT22;11077;50.264;6.798;2023-04-24T08:11:52;6.40;99.90
21830;DHT22;11077;50.264;6.798;2023-04-24T08:14:20;6.50;99.90
21830;DHT22;11077;50.264;6.798;2023-04-24T08:16:48;6.40;99.90
21830;DHT22;11077;50.264;6.798;2023-04-24T08:19:16;6.50;99.90
21830;DHT22;11077;50.264;6.798;2023-04-24T08:21:43;6.40;99.90
21830;DHT22;11077;50.264;6.798;2023-04-24T08:24:10;6.50;99.90
21830;DHT22;11077;50.264;6.798;2023-04-24T08:26:37;6.50;99.90
21830;DHT22;11077;50.264;6.798;2023-04-24T08:29:05;6.60;99.90
21830;DHT22;11077;50.264;6.798;2023-04-24T08:31:32;6.60;99.90
21830;DHT22;11077;50.264;6.798;2023-04-24T08:34:01;6.60;99.90
21830;DHT22;11077;50.264;6.798;2023-04-24T08:36:29;6.70;99.90
21830;DHT22;11077;50.264;6.798;2023-04-24T08:38:57;6.70;99.90
21830;DHT22;11077;50.264;6.798;2023-04-24T08:41:25;6.80;99.90
21830;DHT22;11077;50.264;6.798;2023-04-24T08:43:54;6.80;99.90
21830;DHT22;11077;50.264;6.798;2023-04-24T08:46:24;6.80;99.90
21830;DHT22;11077;50.264;6.798;2023-04-24T08:48:52;6.80;99.90
21830;DHT22;11077;50.264;6.798;2023-04-24T08:51:21;6.80;99.90
21830;DHT22;11077;50.264;6.798;2023-04-24T08:53:49;6.90;99.90
21830;DHT22;11077;50.264;6.798;2023-04-24T08:56:19;6.90;99.90
21830;DHT22;11077;50.264;6.798;2023-04-24T08:58:47;7.00;99.90
21830;DHT22;11077;50.264;6.798;2023-04-24T09:01:15;7.00;99.90
21830;DHT22;11077;50.264;6.798;2023-04-24T09:03:42;7.00;99.90
21830;DHT22;11077;50.264;6.798;2023-04-24T09:06:11;6.90;99.90
21830;DHT22;11077;50.264;6.798;2023-04-24T09:08:41;7.00;99.90
21830;DHT22;11077;50.264;6.798;2023-04-24T09:11:10;6.90;99.90
21830;DHT22;11077;50.264;6.798;2023-04-24T09:13:38;6.80;99.90
21830;DHT22;11077;50.264;6.798;2023-04-24T09:16:05;6.90;99.90
21830;DHT22;11077;50.264;6.798;2023-04-24T09:18:33;6.90;99.90
21830;DHT22;11077;50.264;6.798;2023-04-24T09:21:03;6.90;99.90
21830;DHT22;11077;50.264;6.798;2023-04-24T09:23:31;6.80;99.90
21830;DHT22;11077;50.264;6.798;2023-04-24T09:26:01;6.80;99.90
21830;DHT22;11077;50.264;6.798;2023-04-24T09:28:35;6.80;99.90
21830;DHT22;11077;50.264;6.798;2023-04-24T09:31:07;6.70;99.90
21830;DHT22;11077;50.264;6.798;2023-04-24T09:33:35;6.60;99.90
21830;DHT22;11077;50.264;6.798;2023-04-24T09:36:02;6.50;99.90
21830;DHT22;11077;50.264;6.798;2023-04-24T09:38:34;6.50;99.90
21830;DHT22;11077;50.264;6.798;2023-04-24T09:41:06;6.60;99.90
21830;DHT22;11077;50.264;6.798;2023-04-24T09:43:34;6.60;99.90
21830;DHT22;11077;50.264;6.798;2023-04-24T09:46:05;6.50;99.90
21830;DHT22;11077;50.264;6.798;2023-04-24T09:48:35;6.50;99.90
21830;DHT22;11077;50.264;6.798;2023-04-24T09:51:03;6.50;99.90
21830;DHT22;11077;50.264;6.798;2023-04-24T09:53:32;6.40;99.90
21830;DHT22;11077;50.264;6.798;2023-04-24T09:56:07;6.50;99.90
21830;DHT22;11077;50.264;6.798;2023-04-24T09:58:35;6.60;99.90
21830;DHT22;11077;50.264;6.798;2023-04-24T10:01:03;6.60;99.90
21830;DHT22;11077;50.264;6.798;2023-04-24T10:03:31;6.70;99.90
21830;DHT22;11077;50.264;6.798;2023-04-24T10:05:59;6.80;99.90
21830;DHT22;11077;50.264;6.798;2023-04-24T10:08:26;6.80;99.90
21830;DHT22;11077;50.264;6.798;2023-04-24T10:10:59;6.90;99.90
21830;DHT22;11077;50.264;6.798;2023-04-24T10:13:28;6.80;99.90
21830;DHT22;11077;50.264;6.798;2023-04-24T10:15:56;6.80;99.90
21830;DHT22;11077;50.264;6.798;2023-04-24T10:18:26;6.80;99.90
21830;DHT22;11077;50.264;6.798;2023-04-24T10:20:54;6.80;99.90
21830;DHT22;11077;50.264;6.798;2023-04-24T10:23:22;6.70;99.90
21830;DHT22;11077;50.264;6.798;2023-04-24T10:25:50;6.80;99.90
21830;DHT22;11077;50.264;6.798;2023-04-24T10:28:19;6.70;99.90
21830;DHT22;11077;50.264;6.798;2023-04-24T10:30:49;6.80;99.90
21830;DHT22;11077;50.264;6.798;2023-04-24T10:33:18;6.80;99.90
21830;DHT22;11077;50.264;6.798;2023-04-24T10:35:47;6.90;99.90
21830;DHT22;11077;50.264;6.798;2023-04-24T10:38:18;7.00;99.90
21830;DHT22;11077;50.264;6.798;2023-04-24T10:40:49;7.20;99.90
21830;DHT22;11077;50.264;6.798;2023-04-24T10:43:18;7.40;99.90
21830;DHT22;11077;50.264;6.798;2023-04-24T10:48:52;7.60;99.90
21830;DHT22;11077;50.264;6.798;2023-04-24T10:51:22;7.90;99.90
21830;DHT22;11077;50.264;6.798;2023-04-24T10:53:50;7.80;99.90
21830;DHT22;11077;50.264;6.798;2023-04-24T10:56:18;7.80;99.90
21830;DHT22;11077;50.264;6.798;2023-04-24T10:58:50;7.70;99.90
21830;DHT22;11077;50.264;6.798;2023-04-24T11:01:25;7.60;99.90
21830;DHT22;11077;50.264;6.798;2023-04-24T11:03:56;7.50;99.90
21830;DHT22;11077;50.264;6.798;2023-04-24T11:06:31;7.50;99.90
21830;DHT22;11077;50.264;6.798;2023-04-24T11:09:05;7.40;99.90
21830;DHT22;11077;50.264;6.798;2023-04-24T11:11:33;7.30;99.90
21830;DHT22;11077;50.264;6.798;2023-04-24T11:14:05;7.20;99.90
21830;DHT22;11077;50.264;6.798;2023-04-24T11:16:35;7.20;99.90
21830;DHT22;11077;50.264;6.798;2023-04-24T11:19:06;7.20;99.90
21830;DHT22;11077;50.264;6.798;2023-04-24T11:21:42;7.20;99.90
21830;DHT22;11077;50.264;6.798;2023-04-24T11:24:27;7.20;99.90
21830;DHT22;11077;50.264;6.798;2023-04-24T11:26:56;7.40;99.90
21830;DHT22;11077;50.264;6.798;2023-04-24T11:29:42;7.60;99.90
21830;DHT22;11077;50.264;6.798;2023-04-24T11:32:24;7.80;99.90
21830;DHT22;11077;50.264;6.798;2023-04-24T11:34:55;8.00;99.90
21830;DHT22;11077;50.264;6.798;2023-04-24T11:37:23;8.00;99.90
21830;DHT22;11077;50.264;6.798;2023-04-24T11:39:52;8.10;99.90
21830;DHT22;11077;50.264;6.798;2023-04-24T11:42:21;8.10;99.90
21830;DHT22;11077;50.264;6.798;2023-04-24T11:44:49;8.10;99.90
21830;DHT22;11077;50.264;6.798;2023-04-24T11:47:16;8.00;99.90
21830;DHT22;11077;50.264;6.798;2023-04-24T11:49:44;8.10;99.90
21830;DHT22;11077;50.264;6.798;2023-04-24T11:52:15;8.20;99.90
21830;DHT22;11077;50.264;6.798;2023-04-24T11:54:47;8.30;99.90
21830;DHT22;11077;50.264;6.798;2023-04-24T11:57:15;8.30;99.90
21830;DHT22;11077;50.264;6.798;2023-04-24T11:59:42;8.40;99.90
21830;DHT22;11077;50.264;6.798;2023-04-24T12:02:20;8.40;99.90
21830;DHT22;11077;50.264;6.798;2023-04-24T12:04:47;8.20;99.90
21830;DHT22;11077;50.264;6.798;2023-04-24T12:07:16;8.20;99.90
21830;DHT22;11077;50.264;6.798;2023-04-24T12:09:44;8.30;99.90
21830;DHT22;11077;50.264;6.798;2023-04-24T12:12:12;8.40;99.90
21830;DHT22;11077;50.264;6.798;2023-04-24T12:14:50;8.50;99.90
21830;DHT22;11077;50.264;6.798;2023-04-24T12:17:24;8.60;99.90
21830;DHT22;11077;50.264;6.798;2023-04-24T12:19:52;8.80;99.90
21830;DHT22;11077;50.264;6.798;2023-04-24T12:22:20;8.90;99.90
21830;DHT22;11077;50.264;6.798;2023-04-24T12:24:59;9.00;99.90
21830;DHT22;11077;50.264;6.798;2023-04-24T12:27:28;9.00;99.90
21830;DHT22;11077;50.264;6.798;2023-04-24T12:29:56;9.00;99.90
21830;DHT22;11077;50.264;6.798;2023-04-24T12:32:24;8.90;99.90
21830;DHT22;11077;50.264;6.798;2023-04-24T12:34:52;9.00;99.90
21830;DHT22;11077;50.264;6.798;2023-04-24T12:37:21;9.00;99.90
21830;DHT22;11077;50.264;6.798;2023-04-24T12:39:59;8.90;99.90
21830;DHT22;11077;50.264;6.798;2023-04-24T12:42:27;8.90;99.90
21830;DHT22;11077;50.264;6.798;2023-04-24T12:44:57;8.90;99.90
21830;DHT22;11077;50.264;6.798;2023-04-24T12:47:25;8.90;99.90
21830;DHT22;11077;50.264;6.798;2023-04-24T12:49:53;8.80;99.90
21830;DHT22;11077;50.264;6.798;2023-04-24T12:52:22;8.80;99.90
21830;DHT22;11077;50.264;6.798;2023-04-24T12:54:53;8.80;99.90
21830;DHT22;11077;50.264;6.798;2023-04-24T12:57:20;8.70;99.90
21830;DHT22;11077;50.264;6.798;2023-04-24T12:59:47;8.50;99.90
21830;DHT22;11077;50.264;6.798;2023-04-24T13:02:15;8.40;99.90
21830;DHT22;11077;50.264;6.798;2023-04-24T13:04:44;8.40;99.90
21830;DHT22;11077;50.264;6.798;2023-04-24T13:07:12;8.40;99.90
21830;DHT22;11077;50.264;6.798;2023-04-24T13:09:42;8.30;99.90
21830;DHT22;11077;50.264;6.798;2023-04-24T13:12:10;8.30;99.90
21830;DHT22;11077;50.264;6.798;2023-04-24T13:14:37;8.20;99.90
21830;DHT22;11077;50.264;6.798;2023-04-24T13:17:05;8.20;99.90
21830;DHT22;11077;50.264;6.798;2023-04-24T13:19:36;8.20;99.90
21830;DHT22;11077;50.264;6.798;2023-04-24T13:22:04;8.30;99.90
21830;DHT22;11077;50.264;6.798;2023-04-24T13:24:31;8.30;99.90
21830;DHT22;11077;50.264;6.798;2023-04-24T13:27:01;8.30;99.90
21830;DHT22;11077;50.264;6.798;2023-04-24T13:29:28;8.30;99.90
21830;DHT22;11077;50.264;6.798;2023-04-24T13:31:55;8.30;99.90
21830;DHT22;11077;50.264;6.798;2023-04-24T13:34:23;8.30;99.90
21830;DHT22;11077;50.264;6.798;2023-04-24T13:36:50;8.30;99.90
21830;DHT22;11077;50.264;6.798;2023-04-24T13:39:18;8.40;99.90
21830;DHT22;11077;50.264;6.798;2023-04-24T13:41:45;8.60;99.90
21830;DHT22;11077;50.264;6.798;2023-04-24T13:44:15;8.80;99.90
21830;DHT22;11077;50.264;6.798;2023-04-24T13:46:44;8.90;99.90
21830;DHT22;11077;50.264;6.798;2023-04-24T13:49:11;9.10;99.90
21830;DHT22;11077;50.264;6.798;2023-04-24T13:51:39;9.20;99.90
21830;DHT22;11077;50.264;6.798;2023-04-24T13:54:06;9.30;99.90
21830;DHT22;11077;50.264;6.798;2023-04-24T13:56:34;9.40;99.90
21830;DHT22;11077;50.264;6.798;2023-04-24T13:59:01;9.50;99.90
21830;DHT22;11077;50.264;6.798;2023-04-24T14:01:30;9.70;99.90
21830;DHT22;11077;50.264;6.798;2023-04-24T14:03:57;9.90;99.90
21830;DHT22;11077;50.264;6.798;2023-04-24T14:06:25;10.00;99.90
21830;DHT22;11077;50.264;6.798;2023-04-24T14:08:52;10.00;99.90
21830;DHT22;11077;50.264;6.798;2023-04-24T14:11:20;10.00;99.90
21830;DHT22;11077;50.264;6.798;2023-04-24T14:13:48;10.00;99.90
21830;DHT22;11077;50.264;6.798;2023-04-24T14:16:15;9.90;99.90
21830;DHT22;11077;50.264;6.798;2023-04-24T14:18:44;9.80;99.90
21830;DHT22;11077;50.264;6.798;2023-04-24T14:21:11;9.70;99.90
21830;DHT22;11077;50.264;6.798;2023-04-24T14:23:38;9.60;99.90
21830;DHT22;11077;50.264;6.798;2023-04-24T14:26:06;9.40;99.90
21830;DHT22;11077;50.264;6.798;2023-04-24T14:28:33;9.30;99.90
21830;DHT22;11077;50.264;6.798;2023-04-24T14:31:00;9.10;99.90
21830;DHT22;11077;50.264;6.798;2023-04-24T14:33:28;9.00;99.90
21830;DHT22;11077;50.264;6.798;2023-04-24T14:35:57;8.80;99.90
21830;DHT22;11077;50.264;6.798;2023-04-24T14:38:24;8.60;99.90
21830;DHT22;11077;50.264;6.798;2023-04-24T14:40:51;8.30;99.90
21830;DHT22;11077;50.264;6.798;2023-04-24T14:43:18;8.30;99.90
21830;DHT22;11077;50.264;6.798;2023-04-24T14:45:45;8.20;99.90
21830;DHT22;11077;50.264;6.798;2023-04-24T14:48:13;8.20;99.90
21830;DHT22;11077;50.264;6.798;2023-04-24T14:50:40;8.20;99.90
21830;DHT22;11077;50.264;6.798;2023-04-24T14:53:09;8.20;99.90
21830;DHT22;11077;50.264;6.798;2023-04-24T14:55:36;8.40;99.90
21830;DHT22;11077;50.264;6.798;2023-04-24T14:58:04;8.50;99.90
21830;DHT22;11077;50.264;6.798;2023-04-24T15:00:31;8.60;99.90
21830;DHT22;11077;50.264;6.798;2023-04-24T15:02:58;8.60;99.90
21830;DHT22;11077;50.264;6.798;2023-04-24T15:05:25;8.70;99.90
21830;DHT22;11077;50.264;6.798;2023-04-24T15:07:53;8.80;99.90
21830;DHT22;11077;50.264;6.798;2023-04-24T15:10:21;9.00;99.90
21830;DHT22;11077;50.264;6.798;2023-04-24T15:12:51;9.10;99.90
21830;DHT22;11077;50.264;6.798;2023-04-24T15:15:18;9.10;99.90
21830;DHT22;11077;50.264;6.798;2023-04-24T15:17:45;9.20;99.90
21830;DHT22;11077;50.264;6.798;2023-04-24T15:20:13;9.20;99.90
21830;DHT22;11077;50.264;6.798;2023-04-24T15:22:40;9.40;99.90
21830;DHT22;11077;50.264;6.798;2023-04-24T15:25:08;9.50;99.90
21830;DHT22;11077;50.264;6.798;2023-04-24T15:27:44;9.60;99.90
21830;DHT22;11077;50.264;6.798;2023-04-24T15:30:12;9.70;99.90
21830;DHT22;11077;50.264;6.798;2023-04-24T15:32:39;9.80;99.90
21830;DHT22;11077;50.264;6.798;2023-04-24T15:35:07;9.80;99.90
21830;DHT22;11077;50.264;6.798;2023-04-24T15:37:35;9.80;99.90
21830;DHT22;11077;50.264;6.798;2023-04-24T15:40:02;9.70;99.90
21830;DHT22;11077;50.264;6.798;2023-04-24T15:42:31;9.70;99.90
21830;DHT22;11077;50.264;6.798;2023-04-24T15:44:59;9.60;99.90
21830;DHT22;11077;50.264;6.798;2023-04-24T15:47:27;9.50;99.90
21830;DHT22;11077;50.264;6.798;2023-04-24T15:49:54;9.30;99.90
21830;DHT22;11077;50.264;6.798;2023-04-24T15:52:21;9.20;99.90
21830;DHT22;11077;50.264;6.798;2023-04-24T15:54:48;9.10;99.90
21830;DHT22;11077;50.264;6.798;2023-04-24T15:57:16;9.00;99.90
21830;DHT22;11077;50.264;6.798;2023-04-24T15:59:44;8.90;99.90
21830;DHT22;11077;50.264;6.798;2023-04-24T16:02:14;8.80;99.90
21830;DHT22;11077;50.264;6.798;2023-04-24T16:04:44;8.70;99.90